Terminal Aerodrome Forecast
Issued by NWS Grand Rapids, MI

Home | Current Version | Previous Version | Text Only | Print | Product List | Glossary On
Versions: 1 2 3 4 5 6 7 8 9 10 11 12 13
844
FTUS43 KGRR 222341
TAFGRR
TAF
KGRR 222341Z 2300/2324 11005KT P6SM BKN250
     FM230600 13006KT P6SM BKN150
     FM231400 14011G20KT P6SM BKN100
     FM231900 15012G22KT P6SM OVC060=

USA.gov is the U.S. government's official web portal to all federal, state and local government web resources and services.